Time;durP1;ratioP1;P1;durP2;ratioP2;P2;SDS_P1;SDS_P2;PMS_P1;PMS_P2;Temp;Humidity;BMP_temperature;BMP_pressure;BME280_temperature;BME280_humidity;BME280_pressure;Samples;Min_cycle;Max_cycle;Signal;HPM_P1;HPM_P2
2022/04/29 00:02:17;;;;;;;13.05;7.50;;;11.60;61.40;;;;;;5072264;28;20087;-91
2022/04/29 00:04:43;;;;;;;13.38;7.32;;;11.60;61.60;;;;;;5023107;28;20501;-91
2022/04/29 00:07:10;;;;;;;11.82;7.57;;;11.60;61.60;;;;;;5023740;28;20049;-92
2022/04/29 00:09:36;;;;;;;9.55;7.18;;;11.60;62.20;;;;;;5056552;28;20049;-91
2022/04/29 00:12:05;;;;;;;10.98;7.45;;;11.60;61.60;;;;;;5055964;28;20045;-92
2022/04/29 00:14:30;;;;;;;13.93;7.30;;;11.60;61.60;;;;;;5056012;28;20066;-90
2022/04/29 00:16:57;;;;;;;11.75;7.88;;;11.60;61.60;;;;;;5023046;28;20037;-91
2022/04/29 00:19:23;;;;;;;19.50;8.13;;;11.50;61.60;;;;;;5038558;28;20048;-92
2022/04/29 00:21:49;;;;;;;12.35;7.60;;;11.60;61.70;;;;;;5055692;28;20045;-91
2022/04/29 00:24:14;;;;;;;11.30;7.05;;;11.60;61.70;;;;;;5022771;28;20051;-92
2022/04/29 00:26:40;;;;;;;13.48;7.22;;;11.60;62.30;;;;;;5038965;28;20048;-91
2022/04/29 00:29:07;;;;;;;12.88;7.55;;;11.60;61.70;;;;;;5022585;28;20052;-90
2022/04/29 00:31:34;;;;;;;12.13;6.53;;;11.60;61.80;;;;;;5022094;28;20494;-91
2022/04/29 00:34:01;;;;;;;13.18;7.15;;;11.60;61.80;;;;;;5021676;28;20033;-91
2022/04/29 00:36:26;;;;;;;13.30;7.57;;;11.60;61.70;;;;;;5054738;28;20040;-91
2022/04/29 00:38:52;;;;;;;14.45;6.90;;;11.60;61.80;;;;;;5054258;28;20501;-91
2022/04/29 00:41:19;;;;;;;13.13;7.70;;;11.60;61.70;;;;;;5038023;28;20041;-90
2022/04/29 00:43:45;;;;;;;10.38;6.60;;;11.60;61.60;;;;;;5054317;28;20394;-91
2022/04/29 00:46:11;;;;;;;11.30;7.30;;;11.70;61.70;;;;;;5037216;28;20041;-91
2022/04/29 00:48:37;;;;;;;14.60;7.55;;;11.70;61.70;;;;;;5038150;28;20045;-91
2022/04/29 00:51:03;;;;;;;13.45;7.05;;;11.70;61.60;;;;;;5022438;28;20124;-92
2022/04/29 00:53:30;;;;;;;11.45;7.10;;;11.70;61.60;;;;;;5055098;28;20398;-91
2022/04/29 00:55:57;;;;;;;13.90;6.63;;;11.70;61.60;;;;;;5055927;28;20512;-90
2022/04/29 00:58:34;;;;;;;11.45;6.80;;;11.70;61.60;;;;;;5058470;28;20017;-91
2022/04/29 01:01:02;;;;;;;11.57;7.00;;;11.60;61.60;;;;;;5042332;28;20037;-91
2022/04/29 01:03:28;;;;;;;11.73;7.25;;;11.60;62.00;;;;;;5022917;28;20124;-91
2022/04/29 01:05:55;;;;;;;14.85;7.45;;;11.60;61.60;;;;;;5036079;28;20068;-91
2022/04/29 01:08:21;;;;;;;15.27;8.07;;;11.60;61.70;;;;;;5035848;28;20095;-91
2022/04/29 01:10:48;;;;;;;12.15;7.55;;;11.50;61.90;;;;;;5035917;28;20541;-91
2022/04/29 01:13:14;;;;;;;13.05;7.43;;;11.50;62.00;;;;;;5052837;28;20037;-91
2022/04/29 01:15:40;;;;;;;12.10;7.40;;;11.50;61.90;;;;;;5021049;28;20076;-91
2022/04/29 01:18:10;;;;;;;12.32;7.07;;;11.50;61.90;;;;;;5019552;28;20500;-91
2022/04/29 01:20:38;;;;;;;12.15;6.85;;;11.50;62.00;;;;;;5069320;28;20084;-91
2022/04/29 01:23:09;;;;;;;13.77;7.22;;;11.40;62.00;;;;;;5019249;28;20044;-91
2022/04/29 01:25:34;;;;;;;10.63;7.53;;;11.40;62.00;;;;;;5052469;28;20044;-91
2022/04/29 01:28:00;;;;;;;10.60;6.20;;;11.40;61.90;;;;;;5019555;28;20048;-91
2022/04/29 01:30:26;;;;;;;10.13;6.63;;;11.40;62.00;;;;;;5035706;28;20040;-91
2022/04/29 01:32:55;;;;;;;11.82;7.53;;;11.50;62.00;;;;;;5019023;28;20094;-91
2022/04/29 01:35:21;;;;;;;17.33;7.88;;;11.40;61.80;;;;;;5052770;28;20041;-91
2022/04/29 01:37:47;;;;;;;13.35;7.70;;;11.40;61.80;;;;;;5019187;28;20486;-92
2022/04/29 01:40:13;;;;;;;14.30;7.47;;;11.30;61.90;;;;;;5052237;28;20182;-91
2022/04/29 01:42:41;;;;;;;15.23;7.65;;;11.30;62.00;;;;;;5052269;28;20053;-91
2022/04/29 01:45:10;;;;;;;12.35;7.20;;;11.20;62.10;;;;;;5052224;28;20116;-91
2022/04/29 01:47:36;;;;;;;13.75;7.43;;;11.10;62.10;;;;;;5052253;28;20037;-91
2022/04/29 01:50:03;;;;;;;10.98;7.07;;;11.10;62.10;;;;;;5035445;28;20048;-91
2022/04/29 01:52:29;;;;;;;12.27;6.90;;;11.10;62.10;;;;;;5051204;28;20055;-91
2022/04/29 01:54:55;;;;;;;9.85;7.55;;;11.10;62.10;;;;;;5018544;28;20053;-91
2022/04/29 01:57:20;;;;;;;13.18;7.65;;;11.00;62.20;;;;;;5035073;28;20470;-91
2022/04/29 01:59:49;;;;;;;8.90;7.10;;;11.00;62.30;;;;;;5019020;28;20045;-91
2022/04/29 02:02:16;;;;;;;12.13;7.38;;;11.00;62.30;;;;;;5019257;28;20041;-91
2022/04/29 02:04:42;;;;;;;15.88;8.27;;;11.00;62.20;;;;;;5019352;28;21014;-91
2022/04/29 02:07:07;;;;;;;15.95;8.93;;;10.90;62.40;;;;;;5019302;28;20127;-91
2022/04/29 02:09:33;;;;;;;16.27;8.80;;;10.80;62.50;;;;;;5019117;28;20037;-91
2022/04/29 02:12:04;;;;;;;14.65;8.57;;;10.80;62.70;;;;;;5018848;28;20118;-91
2022/04/29 02:14:30;;;;;;;14.30;8.45;;;10.80;62.80;;;;;;5018611;28;20049;-91
2022/04/29 02:16:57;;;;;;;14.40;8.43;;;10.70;62.80;;;;;;5053045;28;20067;-91
2022/04/29 02:19:24;;;;;;;16.20;8.90;;;10.70;63.00;;;;;;5055614;28;20048;-90
2022/04/29 02:21:49;;;;;;;16.25;7.68;;;10.70;63.10;;;;;;5055583;28;20070;-91
2022/04/29 02:24:15;;;;;;;14.38;8.77;;;10.70;63.10;;;;;;5038482;28;20048;-89
2022/04/29 02:26:41;;;;;;;14.93;8.80;;;10.70;63.00;;;;;;5038738;28;20048;-92
2022/04/29 02:29:07;;;;;;;12.70;7.53;;;10.70;62.90;;;;;;5038808;28;20044;-91
2022/04/29 02:31:33;;;;;;;13.93;7.53;;;10.70;62.90;;;;;;5055607;28;20063;-91
2022/04/29 02:34:01;;;;;;;16.25;7.45;;;10.70;62.90;;;;;;5072320;28;20047;-91
2022/04/29 02:36:28;;;;;;;10.93;7.05;;;10.70;62.90;;;;;;5022046;28;20130;-90
2022/04/29 02:38:53;;;;;;;8.88;6.60;;;10.60;62.80;;;;;;5054913;28;20079;-91
2022/04/29 02:41:19;;;;;;;13.07;8.15;;;10.60;62.90;;;;;;5038376;28;20048;-91
2022/04/29 02:43:45;;;;;;;12.20;7.90;;;10.50;62.90;;;;;;5054760;28;20074;-91
2022/04/29 02:46:11;;;;;;;14.68;8.35;;;10.40;63.10;;;;;;5020971;28;20045;-91
2022/04/29 02:48:37;;;;;;;12.68;8.40;;;10.40;63.30;;;;;;5021228;28;20410;-90
2022/04/29 02:51:05;;;;;;;10.82;7.43;;;10.30;63.40;;;;;;5021137;28;20099;-91
2022/04/29 02:53:31;;;;;;;12.57;8.15;;;10.30;63.60;;;;;;5037430;28;20049;-90
2022/04/29 02:55:57;;;;;;;10.98;7.90;;;10.30;63.60;;;;;;5021034;28;20040;-91
2022/04/29 02:58:23;;;;;;;12.82;8.05;;;10.30;63.60;;;;;;5037598;28;20099;-90
2022/04/29 03:00:49;;;;;;;14.75;8.38;;;10.20;63.40;;;;;;5055082;28;20521;-91
2022/04/29 03:03:14;;;;;;;12.27;7.43;;;10.20;63.30;;;;;;5028275;28;20064;-91
2022/04/29 03:05:40;;;;;;;10.93;7.15;;;10.20;63.20;;;;;;5054730;28;20133;-91
2022/04/29 03:08:07;;;;;;;9.55;7.55;;;10.10;63.20;;;;;;5038722;28;20037;-92
2022/04/29 03:10:33;;;;;;;10.75;7.47;;;10.10;63.30;;;;;;5055857;28;20469;-90
2022/04/29 03:13:05;;;;;;;13.85;7.95;;;10.10;63.30;;;;;;5038201;28;20485;-91
2022/04/29 03:15:30;;;;;;;13.23;7.93;;;10.10;63.50;;;;;;5021781;28;20037;-91
2022/04/29 03:20:41;;;;;;;14.35;7.40;;;10.20;63.50;;;;;;5037252;28;20063;-91
2022/04/29 03:23:08;;;;;;;9.93;7.72;;;10.30;63.20;;;;;;5037672;28;20068;-91
2022/04/29 03:25:34;;;;;;;13.15;7.10;;;10.20;63.60;;;;;;5037522;28;20049;-90
2022/04/29 03:28:00;;;;;;;10.82;6.75;;;10.20;63.00;;;;;;5053675;28;20080;-91
2022/04/29 03:30:31;;;;;;;11.15;7.03;;;10.20;63.00;;;;;;5053874;28;20041;-91
2022/04/29 03:32:59;;;;;;;13.65;7.18;;;10.10;63.10;;;;;;5020947;28;20044;-91
2022/04/29 03:35:25;;;;;;;13.45;7.45;;;10.10;63.10;;;;;;5037734;28;20045;-91
2022/04/29 03:37:53;;;;;;;13.82;7.35;;;10.10;63.20;;;;;;5037174;28;20452;-90
2022/04/29 03:40:25;;;;;;;16.00;7.85;;;10.10;63.40;;;;;;5053814;28;20036;-91
2022/04/29 03:42:55;;;;;;;10.90;6.93;;;10.00;64.20;;;;;;5036967;28;20049;-91
2022/04/29 03:45:24;;;;;;;8.98;7.07;;;10.00;63.50;;;;;;5053624;28;20541;-91
2022/04/29 03:47:50;;;;;;;10.35;6.93;;;9.90;63.60;;;;;;5053946;28;20071;-91
2022/04/29 03:50:16;;;;;;;12.40;6.78;;;9.90;63.90;;;;;;5053437;28;20091;-90
2022/04/29 03:52:47;;;;;;;12.88;6.45;;;9.80;64.00;;;;;;5020420;28;20402;-91
2022/04/29 03:55:14;;;;;;;10.82;7.38;;;9.70;64.10;;;;;;5053654;28;20036;-89
2022/04/29 03:57:40;;;;;;;8.98;6.55;;;9.80;64.00;;;;;;5036822;28;20072;-91
2022/04/29 04:00:06;;;;;;;12.13;7.03;;;9.80;63.90;;;;;;5036929;28;20076;-91
2022/04/29 04:02:32;;;;;;;11.45;7.05;;;9.70;63.90;;;;;;5053402;28;20041;-91
2022/04/29 04:05:00;;;;;;;11.73;7.30;;;9.70;63.90;;;;;;5020625;28;20090;-91
2022/04/29 04:07:25;;;;;;;14.90;7.72;;;9.70;64.00;;;;;;5036445;28;20041;-91
2022/04/29 04:09:51;;;;;;;13.93;7.47;;;9.80;64.00;;;;;;5036771;28;20049;-91
2022/04/29 04:12:17;;;;;;;13.68;8.20;;;9.70;63.90;;;;;;5036691;28;20045;-91
2022/04/29 04:14:43;;;;;;;11.93;8.23;;;9.70;64.00;;;;;;5020252;28;20477;-91
2022/04/29 04:17:08;;;;;;;13.27;8.57;;;9.70;64.10;;;;;;5053247;28;20122;-91
2022/04/29 04:19:35;;;;;;;18.73;8.73;;;9.70;64.20;;;;;;5019340;28;20505;-90
2022/04/29 04:22:01;;;;;;;17.13;8.65;;;9.70;64.30;;;;;;5019816;28;20110;-90
2022/04/29 04:24:27;;;;;;;12.85;8.40;;;9.60;64.40;;;;;;5020035;28;20041;-91
2022/04/29 04:26:53;;;;;;;15.55;8.90;;;9.60;64.60;;;;;;5019987;28;20052;-91
2022/04/29 04:29:18;;;;;;;12.27;8.77;;;9.60;64.70;;;;;;5019778;28;20062;-90
2022/04/29 04:31:44;;;;;;;13.32;7.90;;;9.70;65.50;;;;;;5019555;28;20045;-89
2022/04/29 04:36:54;;;;;;;14.27;8.27;;;9.80;64.80;;;;;;5035950;28;20053;-90
2022/04/29 04:39:21;;;;;;;14.70;8.70;;;9.80;64.50;;;;;;5019092;28;20049;-90
2022/04/29 04:41:48;;;;;;;13.23;8.05;;;9.80;64.60;;;;;;5052110;28;20717;-90
2022/04/29 04:44:13;;;;;;;13.55;8.85;;;9.90;64.70;;;;;;5019008;28;20091;-91
2022/04/29 04:46:39;;;;;;;13.30;8.88;;;9.90;64.70;;;;;;5019923;28;20091;-91
2022/04/29 04:49:05;;;;;;;15.73;9.43;;;9.90;64.70;;;;;;5036172;28;20045;-91
2022/04/29 04:51:31;;;;;;;12.90;8.98;;;10.00;64.70;;;;;;5019107;28;20511;-90
2022/04/29 04:53:56;;;;;;;13.15;8.57;;;10.10;64.80;;;;;;5036203;28;20053;-91
2022/04/29 04:56:22;;;;;;;11.93;8.10;;;10.10;64.80;;;;;;5019729;28;20048;-91
2022/04/29 04:58:49;;;;;;;14.35;8.68;;;10.10;64.80;;;;;;5019496;28;20109;-91
2022/04/29 05:01:14;;;;;;;16.92;8.48;;;10.20;65.10;;;;;;5019258;28;20033;-90
2022/04/29 05:03:41;;;;;;;13.30;8.30;;;10.20;64.90;;;;;;5035894;28;20037;-91
2022/04/29 05:06:07;;;;;;;12.60;8.90;;;10.30;65.00;;;;;;5019560;28;20482;-89
2022/04/29 05:08:33;;;;;;;13.05;9.40;;;10.30;65.30;;;;;;5019221;28;20063;-90
2022/04/29 05:10:58;;;;;;;16.83;9.55;;;10.30;65.40;;;;;;5019113;28;20470;-90
2022/04/29 05:13:24;;;;;;;13.63;10.07;;;10.40;65.70;;;;;;5018924;28;20136;-91
2022/04/29 05:15:50;;;;;;;11.40;9.07;;;10.40;65.80;;;;;;5035628;28;20482;-91
2022/04/29 05:18:16;;;;;;;15.00;9.95;;;10.50;65.90;;;;;;5035249;28;20040;-91
2022/04/29 05:20:41;;;;;;;19.95;10.93;;;10.60;65.80;;;;;;5035236;28;20448;-90
2022/04/29 05:23:07;;;;;;;16.15;11.80;;;10.70;65.90;;;;;;5034888;28;20040;-90
2022/04/29 05:25:34;;;;;;;21.08;11.43;;;10.80;65.80;;;;;;5033890;28;20048;-90
2022/04/29 05:28:00;;;;;;;20.35;12.40;;;10.80;65.80;;;;;;5018261;28;20048;-91
2022/04/29 05:30:27;;;;;;;16.90;11.18;;;10.80;66.10;;;;;;5018546;28;20081;-89
2022/04/29 05:32:53;;;;;;;18.17;11.25;;;10.80;66.30;;;;;;5017677;28;20047;-90
2022/04/29 05:35:19;;;;;;;17.50;11.30;;;10.90;66.40;;;;;;5017920;28;20044;-90
2022/04/29 05:37:45;;;;;;;18.15;11.02;;;10.90;66.40;;;;;;5034879;28;20064;-91
2022/04/29 05:42:56;;;;;;;15.77;10.68;;;11.20;66.30;;;;;;5034874;28;20147;-91
2022/04/29 05:45:21;;;;;;;14.82;9.98;;;11.40;65.80;;;;;;5017402;28;20136;-89
2022/04/29 05:47:47;;;;;;;16.13;10.48;;;11.60;65.40;;;;;;5018277;28;20041;-91
2022/04/29 05:50:13;;;;;;;16.50;9.20;;;11.80;65.20;;;;;;5034434;28;20103;-90
2022/04/29 05:52:39;;;;;;;12.73;9.10;;;12.00;65.00;;;;;;5052440;28;20049;-90
2022/04/29 05:55:05;;;;;;;15.55;9.30;;;12.10;64.80;;;;;;5021857;28;20409;-89
2022/04/29 05:57:34;;;;;;;16.45;9.40;;;12.30;64.70;;;;;;5038133;28;20052;-90
2022/04/29 05:59:59;;;;;;;17.85;9.02;;;12.40;64.30;;;;;;5022028;28;20044;-91
2022/04/29 06:02:26;;;;;;;10.95;8.05;;;12.60;64.10;;;;;;5020833;28;20037;-90
2022/04/29 06:04:52;;;;;;;12.10;8.70;;;12.60;63.90;;;;;;5054345;28;20045;-90
2022/04/29 06:07:18;;;;;;;14.93;8.32;;;12.70;63.90;;;;;;5020117;28;20151;-89
2022/04/29 06:09:43;;;;;;;13.45;7.78;;;12.80;63.60;;;;;;5037412;28;20095;-89
2022/04/29 06:12:09;;;;;;;14.10;8.27;;;12.80;63.40;;;;;;5021944;28;20040;-89
2022/04/29 06:14:36;;;;;;;13.73;8.32;;;12.90;63.40;;;;;;5022491;28;20049;-91
2022/04/29 06:17:02;;;;;;;10.98;7.65;;;12.90;63.30;;;;;;5039089;28;20051;-90
2022/04/29 06:19:28;;;;;;;13.50;7.78;;;12.90;63.20;;;;;;5056305;28;20052;-92
2022/04/29 06:21:54;;;;;;;13.65;7.65;;;13.00;63.00;;;;;;5023435;28;20143;-92
2022/04/29 06:24:20;;;;;;;12.98;7.68;;;13.00;62.90;;;;;;5038979;28;20080;-90
2022/04/29 06:26:47;;;;;;;13.23;6.97;;;13.00;62.60;;;;;;5023058;28;20087;-91
2022/04/29 06:29:12;;;;;;;12.32;7.65;;;13.00;62.60;;;;;;5022651;28;20052;-91
2022/04/29 06:31:38;;;;;;;14.25;7.30;;;12.90;62.50;;;;;;5038899;28;20433;-89
2022/04/29 06:34:04;;;;;;;11.93;7.10;;;12.90;62.50;;;;;;5022441;28;20378;-90
2022/04/29 06:36:30;;;;;;;11.18;7.45;;;12.90;62.40;;;;;;5022746;28;20140;-91
2022/04/29 06:38:55;;;;;;;13.60;7.85;;;13.00;62.30;;;;;;5039123;28;20045;-93
2022/04/29 06:41:21;;;;;;;14.05;7.80;;;13.00;62.20;;;;;;5039031;28;20080;-92
2022/04/29 06:43:57;;;;;;;13.18;7.63;;;13.10;62.10;;;;;;5022847;28;20106;-91
2022/04/29 06:46:25;;;;;;;10.52;7.65;;;12.90;62.00;;;;;;5022038;28;20045;-93
2022/04/29 06:48:53;;;;;;;11.23;7.70;;;13.10;61.80;;;;;;5022636;28;20083;-92
2022/04/29 06:51:18;;;;;;;8.82;7.13;;;13.20;61.50;;;;;;5054477;28;20045;-91
2022/04/29 06:53:45;;;;;;;7.70;5.88;;;13.20;61.10;;;;;;5022441;28;20071;-93
2022/04/29 06:56:11;;;;;;;11.63;6.43;;;13.20;61.10;;;;;;5021912;28;20102;-91
2022/04/29 06:58:36;;;;;;;13.23;7.18;;;13.30;61.10;;;;;;5022227;28;20041;-93
2022/04/29 07:01:02;;;;;;;11.50;7.40;;;13.30;61.00;;;;;;5022402;28;20194;-93
2022/04/29 07:03:46;;;;;;;11.60;7.10;;;13.40;60.80;;;;;;5021994;28;20056;-92
2022/04/29 07:06:13;;;;;;;13.55;6.90;;;13.30;60.80;;;;;;5022041;28;20126;-91
2022/04/29 07:08:39;;;;;;;10.25;6.03;;;13.50;60.50;;;;;;5021042;28;20052;-91
2022/04/29 07:11:04;;;;;;;10.80;6.10;;;13.50;60.20;;;;;;5038444;28;20044;-92
2022/04/29 07:13:34;;;;;;;8.07;5.45;;;13.50;60.00;;;;;;5022466;28;20043;-92
2022/04/29 07:16:00;;;;;;;10.23;6.20;;;13.40;59.90;;;;;;5022129;28;20383;-91
2022/04/29 07:18:25;;;;;;;8.77;5.43;;;13.50;60.00;;;;;;5020593;28;20045;-91
2022/04/29 07:20:52;;;;;;;9.00;5.60;;;13.60;59.80;;;;;;5037615;28;20412;-90
2022/04/29 07:23:18;;;;;;;9.70;5.70;;;13.50;59.60;;;;;;5037490;28;20049;-88
2022/04/29 07:25:43;;;;;;;8.38;5.50;;;13.50;59.80;;;;;;5020857;28;20501;-92
2022/04/29 07:28:09;;;;;;;8.07;5.78;;;13.50;59.90;;;;;;5021695;28;20106;-92
2022/04/29 07:30:35;;;;;;;6.95;4.95;;;13.50;59.90;;;;;;5037690;28;20490;-92
2022/04/29 07:33:00;;;;;;;9.45;5.55;;;13.60;59.80;;;;;;5021082;28;20489;-92
2022/04/29 07:43:39;;;;;;;14.35;5.57;;;13.90;58.80;;;;;;5059449;28;20055;-94
2022/04/29 07:46:05;;;;;;;9.45;4.80;;;14.00;58.70;;;;;;5041514;28;20045;-92
2022/04/29 07:48:31;;;;;;;8.57;4.93;;;14.00;58.80;;;;;;5055736;28;20131;-91
2022/04/29 07:50:59;;;;;;;7.80;5.03;;;14.00;58.60;;;;;;5039286;28;20138;-91
2022/04/29 07:53:25;;;;;;;6.55;4.88;;;14.00;58.30;;;;;;5037303;28;20079;-93
2022/04/29 07:55:52;;;;;;;7.20;4.97;;;14.10;58.00;;;;;;5037584;28;20088;-92
2022/04/29 07:58:18;;;;;;;7.72;5.72;;;14.20;57.80;;;;;;5020651;28;20045;-92
2022/04/29 08:00:43;;;;;;;7.05;5.43;;;14.30;57.50;;;;;;5020641;28;20041;-91
2022/04/29 08:03:09;;;;;;;7.85;5.57;;;14.30;57.40;;;;;;5021299;28;20091;-93
2022/04/29 08:05:41;;;;;;;12.30;5.75;;;14.50;57.20;;;;;;5021462;28;20181;-92
2022/04/29 08:08:07;;;;;;;8.10;5.75;;;14.40;57.00;;;;;;5021117;28;20041;-93
2022/04/29 08:10:34;;;;;;;10.50;5.93;;;14.40;57.10;;;;;;5021425;28;20098;-91
2022/04/29 08:13:02;;;;;;;8.32;5.07;;;14.50;57.20;;;;;;5020031;28;20080;-91
2022/04/29 08:15:31;;;;;;;7.72;4.80;;;14.40;56.60;;;;;;5035215;28;20524;-91
2022/04/29 08:17:57;;;;;;;6.47;4.43;;;14.40;56.50;;;;;;5053128;28;20084;-90
2022/04/29 08:20:23;;;;;;;10.15;4.63;;;14.40;56.50;;;;;;5020199;28;20045;-94
2022/04/29 08:22:50;;;;;;;9.77;5.80;;;14.50;56.50;;;;;;5053489;28;20071;-92
2022/04/29 08:25:19;;;;;;;8.32;5.50;;;14.60;56.30;;;;;;5021035;28;20041;-90
2022/04/29 08:27:46;;;;;;;9.60;5.38;;;14.70;56.00;;;;;;5020968;28;20126;-91
2022/04/29 08:30:12;;;;;;;11.13;4.97;;;14.80;55.30;;;;;;5053608;28;20075;-91
2022/04/29 08:32:50;;;;;;;9.57;4.82;;;14.80;55.20;;;;;;5036720;28;20140;-89
2022/04/29 08:35:16;;;;;;;11.85;5.13;;;14.80;55.30;;;;;;5019800;28;20083;-91
2022/04/29 08:37:43;;;;;;;8.60;4.50;;;14.90;54.40;;;;;;5068418;28;20132;-92
2022/04/29 08:40:11;;;;;;;7.60;4.95;;;14.90;54.20;;;;;;5052605;28;20045;-92
2022/04/29 08:42:38;;;;;;;7.03;4.30;;;14.80;54.20;;;;;;5035783;28;20447;-94
2022/04/29 08:45:17;;;;;;;9.25;5.05;;;14.80;54.20;;;;;;5020066;28;20049;-91
2022/04/29 08:47:44;;;;;;;6.35;4.75;;;14.80;54.40;;;;;;5052430;28;20402;-89
2022/04/29 08:50:19;;;;;;;7.47;4.38;;;14.90;54.00;;;;;;5066707;28;20041;-91
2022/04/29 08:52:46;;;;;;;10.52;4.72;;;15.00;54.20;;;;;;5051530;28;20131;-88
2022/04/29 09:00:42;;;;;;;8.02;4.60;;;15.80;52.80;;;;;;5028729;28;20148;-91
2022/04/29 09:03:13;;;;;;;7.20;4.72;;;16.00;52.60;;;;;;5003393;28;20048;-88
2022/04/29 09:05:39;;;;;;;9.52;4.57;;;16.00;52.80;;;;;;5033431;28;20441;-89
2022/04/29 09:08:13;;;;;;;6.88;5.00;;;16.10;52.40;;;;;;4998264;28;20049;-90
2022/04/29 09:10:51;;;;;;;7.65;4.38;;;16.10;52.70;;;;;;4996228;28;20038;-90
2022/04/29 09:13:24;;;;;;;7.07;4.10;;;16.10;52.00;;;;;;4993552;28;20505;-87
2022/04/29 09:15:54;;;;;;;6.60;4.47;;;16.10;51.80;;;;;;4995557;28;20069;-88
2022/04/29 09:18:34;;;;;;;9.35;4.75;;;16.20;51.70;;;;;;4995656;28;20100;-90
2022/04/29 09:21:17;;;;;;;8.85;4.53;;;16.00;51.70;;;;;;4996571;28;20557;-88
2022/04/29 09:23:55;;;;;;;5.88;4.20;;;16.00;51.40;;;;;;4996361;28;20041;-89
2022/04/29 09:26:36;;;;;;;8.05;4.68;;;16.00;51.20;;;;;;4994409;28;20518;-87
2022/04/29 09:29:19;;;;;;;8.75;4.70;;;16.10;51.20;;;;;;4996557;28;20128;-90
2022/04/29 09:32:04;;;;;;;7.05;4.00;;;16.00;51.50;;;;;;5025864;28;20056;-86
2022/04/29 09:34:50;;;;;;;7.25;4.07;;;16.00;51.40;;;;;;5047986;28;20059;-90
2022/04/29 09:37:18;;;;;;;7.05;4.00;;;15.90;51.50;;;;;;5033691;28;20060;-87
2022/04/29 09:40:05;;;;;;;9.57;4.15;;;16.00;51.40;;;;;;5027168;28;20052;-86
2022/04/29 09:42:42;;;;;;;9.45;3.78;;;15.90;51.90;;;;;;4992957;28;20073;-90
2022/04/29 09:45:15;;;;;;;7.90;3.85;;;16.00;50.60;;;;;;4994282;28;20049;-88
2022/04/29 09:47:40;;;;;;;6.03;3.33;;;16.00;50.80;;;;;;4994541;28;20379;-87
2022/04/29 09:50:06;;;;;;;5.57;3.75;;;16.10;51.10;;;;;;4994946;28;20133;-88
2022/04/29 09:52:39;;;;;;;5.53;3.90;;;16.20;51.00;;;;;;5010948;28;20041;-86
2022/04/29 09:55:19;;;;;;;7.70;3.60;;;16.40;50.60;;;;;;5010995;28;20091;-86
2022/04/29 09:57:56;;;;;;;6.88;4.43;;;16.60;50.20;;;;;;5011418;28;20451;-87
2022/04/29 10:00:23;;;;;;;7.20;3.97;;;16.80;49.50;;;;;;5011022;28;20057;-87
2022/04/29 10:02:49;;;;;;;7.45;3.88;;;17.10;49.50;;;;;;4994765;28;20048;-87
2022/04/29 10:05:15;;;;;;;8.27;4.53;;;17.20;48.90;;;;;;5010793;28;20054;-89
2022/04/29 10:07:42;;;;;;;9.98;3.88;;;17.40;48.40;;;;;;5011198;28;20056;-88
2022/04/29 10:10:09;;;;;;;5.50;3.70;;;17.50;48.10;;;;;;5011033;28;20045;-89
2022/04/29 10:12:35;;;;;;;6.82;4.25;;;17.60;48.10;;;;;;4994791;28;20053;-88
2022/04/29 10:15:16;;;;;;;7.22;3.78;;;17.70;48.10;;;;;;5010556;28;20448;-88
2022/04/29 10:23:12;;;;;;;6.63;4.20;;;17.80;47.30;;;;;;5011231;28;20051;-89
2022/04/29 10:25:43;;;;;;;5.90;4.43;;;17.70;47.40;;;;;;5011126;28;20128;-91
2022/04/29 10:28:10;;;;;;;7.43;4.25;;;17.70;47.50;;;;;;4994529;28;20140;-91
2022/04/29 10:30:37;;;;;;;9.20;4.45;;;17.60;47.70;;;;;;4994515;28;20041;-88
2022/04/29 10:33:11;;;;;;;5.30;4.35;;;17.60;47.90;;;;;;4995020;28;20132;-89
2022/04/29 10:35:40;;;;;;;7.68;4.25;;;17.40;47.90;;;;;;4994757;28;20098;-88
2022/04/29 10:38:15;;;;;;;6.07;4.22;;;17.30;48.00;;;;;;4995379;28;20049;-89
2022/04/29 10:40:41;;;;;;;8.10;4.13;;;17.20;47.80;;;;;;4997913;28;20045;-88
2022/04/29 10:43:08;;;;;;;6.57;3.97;;;17.20;47.90;;;;;;5014985;28;20545;-90
2022/04/29 10:45:35;;;;;;;6.88;4.50;;;17.10;48.00;;;;;;4998231;28;20127;-89
2022/04/29 10:48:49;;;;;;;5.85;4.68;;;17.00;48.00;;;;;;5014505;28;20049;-90
2022/04/29 10:51:39;;;;;;;6.80;4.40;;;16.90;49.60;;;;;;4986046;28;20145;-88
2022/04/29 10:54:05;;;;;;;6.47;4.40;;;16.90;48.30;;;;;;4989870;28;20498;-88
2022/04/29 10:56:30;;;;;;;7.60;4.32;;;17.00;48.70;;;;;;4998007;28;20132;-89
2022/04/29 10:59:12;;;;;;;7.60;4.55;;;16.90;49.00;;;;;;4998611;28;20445;-88
2022/04/29 11:01:40;;;;;;;6.30;4.40;;;16.70;48.90;;;;;;4994258;28;20084;-89
2022/04/29 11:04:27;;;;;;;6.07;4.13;;;16.60;48.60;;;;;;4993681;28;20084;-88
2022/04/29 11:06:52;;;;;;;7.57;4.90;;;16.60;48.70;;;;;;4998809;28;20049;-90
2022/04/29 11:09:46;;;;;;;9.43;4.72;;;16.50;48.60;;;;;;4997365;28;20037;-88
2022/04/29 11:12:31;;;;;;;5.18;4.43;;;16.40;49.10;;;;;;4997205;28;20053;-88
2022/04/29 11:15:13;;;;;;;6.82;4.20;;;16.30;49.60;;;;;;4997558;28;20041;-89
2022/04/29 11:17:39;;;;;;;4.50;4.07;;;16.40;49.50;;;;;;4997776;28;20565;-88
2022/04/29 11:20:18;;;;;;;4.82;4.35;;;16.40;48.70;;;;;;5008303;28;20049;-90
2022/04/29 11:25:57;;;;;;;5.20;4.60;;;16.10;49.00;;;;;;5033635;28;20080;-88
2022/04/29 11:28:24;;;;;;;5.50;4.78;;;16.30;48.60;;;;;;5017121;28;20401;-89
2022/04/29 11:30:58;;;;;;;8.02;5.57;;;16.20;49.00;;;;;;5033402;28;20045;-89
2022/04/29 11:33:24;;;;;;;11.88;5.72;;;16.20;48.70;;;;;;5017294;28;20041;-90
2022/04/29 11:35:52;;;;;;;6.57;5.68;;;16.30;49.00;;;;;;5049989;28;20047;-89
2022/04/29 11:38:19;;;;;;;9.82;6.03;;;16.30;49.20;;;;;;5051727;28;20045;-89
2022/04/29 11:40:44;;;;;;;10.05;6.03;;;16.20;48.90;;;;;;5051421;28;20464;-87
2022/04/29 11:43:11;;;;;;;10.65;5.63;;;16.20;49.10;;;;;;5016005;28;20045;-88
2022/04/29 11:45:38;;;;;;;13.57;6.50;;;16.20;49.30;;;;;;4998631;28;20041;-89
2022/04/29 11:48:05;;;;;;;10.10;6.32;;;16.20;49.80;;;;;;4982268;28;20136;-88
2022/04/29 11:50:33;;;;;;;10.15;6.20;;;16.20;49.70;;;;;;4998921;28;20091;-89
2022/04/29 11:53:09;;;;;;;10.93;6.35;;;16.20;49.70;;;;;;4999680;28;20041;-91
2022/04/29 11:55:36;;;;;;;10.98;6.32;;;16.00;49.60;;;;;;4999489;28;20076;-89
2022/04/29 11:58:03;;;;;;;8.10;5.93;;;16.10;49.80;;;;;;4998848;28;20048;-87
2022/04/29 12:00:31;;;;;;;8.48;6.55;;;16.00;49.90;;;;;;4998217;28;20080;-89
2022/04/29 12:02:59;;;;;;;10.38;6.80;;;16.10;50.40;;;;;;5016343;28;21094;-88
2022/04/29 12:05:26;;;;;;;7.65;6.00;;;16.10;50.30;;;;;;5014299;28;20049;-89
2022/04/29 12:07:53;;;;;;;8.63;6.00;;;16.10;50.50;;;;;;4999145;28;20037;-89
2022/04/29 12:10:28;;;;;;;9.75;6.47;;;16.20;50.10;;;;;;5015000;28;20081;-90
2022/04/29 12:13:02;;;;;;;13.18;6.78;;;16.10;50.00;;;;;;5014570;28;20037;-88
2022/04/29 12:15:30;;;;;;;8.00;6.10;;;16.20;50.00;;;;;;4998114;28;20041;-90
2022/04/29 12:18:01;;;;;;;11.43;6.38;;;16.30;50.10;;;;;;4998753;28;20038;-89
2022/04/29 12:20:28;;;;;;;10.68;6.60;;;16.40;49.90;;;;;;5009121;28;20104;-89
2022/04/29 12:22:54;;;;;;;10.90;6.63;;;16.40;50.00;;;;;;5004266;28;20041;-89
2022/04/29 12:25:45;;;;;;;8.60;6.75;;;16.50;49.90;;;;;;5001709;28;20049;-88
2022/04/29 12:28:21;;;;;;;7.68;6.03;;;16.30;49.60;;;;;;4998193;28;20049;-89
2022/04/29 12:36:48;;;;;;;12.68;6.05;;;16.30;49.00;;;;;;5014375;28;20049;-89
2022/04/29 12:39:15;;;;;;;10.03;6.13;;;16.30;49.30;;;;;;4997875;28;20061;-89
2022/04/29 12:41:42;;;;;;;9.60;6.80;;;16.50;49.60;;;;;;5014788;28;20284;-87
2022/04/29 12:45:04;;;;;;;7.53;6.00;;;16.50;48.90;;;;;;4997036;28;20041;-87
2022/04/29 12:47:19;;;;;;;9.02;6.35;;;16.50;48.70;;;;;;5013533;28;20049;-90
2022/04/29 12:49:46;;;;;;;7.15;5.70;;;16.80;48.60;;;;;;4998625;28;20137;-90
2022/04/29 12:52:12;;;;;;;8.48;6.45;;;16.90;48.10;;;;;;4997262;28;20144;-88
2022/04/29 12:54:38;;;;;;;9.05;6.22;;;16.90;48.40;;;;;;4997580;28;20064;-88
2022/04/29 12:57:05;;;;;;;7.80;6.07;;;16.90;47.90;;;;;;4998087;28;20053;-87
2022/04/29 12:59:36;;;;;;;6.85;6.00;;;16.80;47.70;;;;;;4998491;28;20506;-93
2022/04/29 13:05:41;;;;;;;7.90;5.97;;;16.40;47.90;;;;;;5017290;28;20045;-93
2022/04/29 13:08:09;;;;;;;8.50;6.10;;;16.30;48.10;;;;;;5015845;28;20544;-91
2022/04/29 13:10:45;;;;;;;7.75;5.70;;;16.50;48.30;;;;;;4997341;28;20046;-92
2022/04/29 13:13:11;;;;;;;7.93;5.55;;;16.40;47.80;;;;;;4997196;28;20128;-93
2022/04/29 13:15:40;;;;;;;8.95;5.70;;;16.40;47.80;;;;;;4997052;28;20037;-94
2022/04/29 13:18:10;;;;;;;8.40;5.30;;;16.30;47.80;;;;;;4997119;28;20196;-92
2022/04/29 13:20:36;;;;;;;8.40;5.65;;;16.10;47.80;;;;;;4996765;28;20043;-95
2022/04/29 13:23:01;;;;;;;5.72;5.05;;;16.10;48.20;;;;;;4997700;28;20038;-94
2022/04/29 13:25:27;;;;;;;8.38;5.38;;;16.20;47.90;;;;;;4996816;28;20079;-94
2022/04/29 13:27:53;;;;;;;6.32;5.35;;;16.20;47.80;;;;;;4997019;28;20041;-92